sensor_id;sensor_type;location;lat;lon;timestamp;P1;durP1;ratioP1;P2;durP2;ratioP2
18387;SDS011;9320;50.256;19.026;2022-10-31T00:01:31;29.33;;;15.43;;
18387;SDS011;9320;50.256;19.026;2022-10-31T00:04:00;32.50;;;16.73;;
18387;SDS011;9320;50.256;19.026;2022-10-31T00:06:28;38.97;;;18.57;;
18387;SDS011;9320;50.256;19.026;2022-10-31T00:08:58;35.20;;;18.53;;
18387;SDS011;9320;50.256;19.026;2022-10-31T00:11:28;30.93;;;18.37;;
18387;SDS011;9320;50.256;19.026;2022-10-31T00:13:56;31.53;;;17.80;;
18387;SDS011;9320;50.256;19.026;2022-10-31T00:16:25;34.53;;;18.77;;
18387;SDS011;9320;50.256;19.026;2022-10-31T00:18:54;33.47;;;18.90;;
18387;SDS011;9320;50.256;19.026;2022-10-31T00:21:23;34.07;;;18.00;;
18387;SDS011;9320;50.256;19.026;2022-10-31T00:23:52;33.77;;;18.33;;
18387;SDS011;9320;50.256;19.026;2022-10-31T00:26:23;32.43;;;19.23;;
18387;SDS011;9320;50.256;19.026;2022-10-31T00:28:51;33.23;;;17.57;;
18387;SDS011;9320;50.256;19.026;2022-10-31T00:31:19;36.45;;;18.17;;
18387;SDS011;9320;50.256;19.026;2022-10-31T00:33:47;33.33;;;17.88;;
18387;SDS011;9320;50.256;19.026;2022-10-31T00:36:16;35.37;;;17.80;;
18387;SDS011;9320;50.256;19.026;2022-10-31T00:38:45;33.33;;;18.30;;
18387;SDS011;9320;50.256;19.026;2022-10-31T00:41:14;34.70;;;18.50;;
18387;SDS011;9320;50.256;19.026;2022-10-31T00:43:46;29.23;;;18.60;;
18387;SDS011;9320;50.256;19.026;2022-10-31T00:46:14;30.87;;;17.97;;
18387;SDS011;9320;50.256;19.026;2022-10-31T00:48:42;40.80;;;18.37;;
18387;SDS011;9320;50.256;19.026;2022-10-31T00:51:10;33.70;;;18.07;;
18387;SDS011;9320;50.256;19.026;2022-10-31T00:53:38;33.00;;;17.83;;
18387;SDS011;9320;50.256;19.026;2022-10-31T00:56:06;36.00;;;17.70;;
18387;SDS011;9320;50.256;19.026;2022-10-31T00:58:34;32.13;;;17.63;;
18387;SDS011;9320;50.256;19.026;2022-10-31T01:01:04;32.00;;;16.60;;
18387;SDS011;9320;50.256;19.026;2022-10-31T01:03:33;29.63;;;17.23;;
18387;SDS011;9320;50.256;19.026;2022-10-31T01:06:02;31.63;;;16.00;;
18387;SDS011;9320;50.256;19.026;2022-10-31T01:08:31;31.30;;;16.70;;
18387;SDS011;9320;50.256;19.026;2022-10-31T01:11:00;29.27;;;16.53;;
18387;SDS011;9320;50.256;19.026;2022-10-31T01:13:30;34.47;;;17.93;;
18387;SDS011;9320;50.256;19.026;2022-10-31T01:15:59;28.93;;;16.10;;
18387;SDS011;9320;50.256;19.026;2022-10-31T01:18:29;32.60;;;16.60;;
18387;SDS011;9320;50.256;19.026;2022-10-31T01:20:58;31.37;;;15.97;;
18387;SDS011;9320;50.256;19.026;2022-10-31T01:23:27;31.97;;;18.07;;
18387;SDS011;9320;50.256;19.026;2022-10-31T01:25:59;31.43;;;16.60;;
18387;SDS011;9320;50.256;19.026;2022-10-31T01:28:32;35.10;;;18.23;;
18387;SDS011;9320;50.256;19.026;2022-10-31T01:31:01;31.40;;;17.43;;
18387;SDS011;9320;50.256;19.026;2022-10-31T01:33:32;28.53;;;17.50;;
18387;SDS011;9320;50.256;19.026;2022-10-31T01:36:00;37.67;;;16.87;;
18387;SDS011;9320;50.256;19.026;2022-10-31T01:38:29;26.47;;;16.13;;
18387;SDS011;9320;50.256;19.026;2022-10-31T01:40:57;38.13;;;17.77;;
18387;SDS011;9320;50.256;19.026;2022-10-31T01:43:30;26.53;;;16.40;;
18387;SDS011;9320;50.256;19.026;2022-10-31T01:46:10;34.87;;;17.13;;
18387;SDS011;9320;50.256;19.026;2022-10-31T01:48:40;27.93;;;16.37;;
18387;SDS011;9320;50.256;19.026;2022-10-31T01:51:09;25.83;;;15.47;;
18387;SDS011;9320;50.256;19.026;2022-10-31T01:53:39;29.13;;;15.63;;
18387;SDS011;9320;50.256;19.026;2022-10-31T01:56:09;26.47;;;16.37;;
18387;SDS011;9320;50.256;19.026;2022-10-31T01:58:38;25.50;;;15.13;;
18387;SDS011;9320;50.256;19.026;2022-10-31T02:01:07;26.10;;;15.77;;
18387;SDS011;9320;50.256;19.026;2022-10-31T02:03:35;24.33;;;15.00;;
18387;SDS011;9320;50.256;19.026;2022-10-31T02:06:05;24.93;;;15.03;;
18387;SDS011;9320;50.256;19.026;2022-10-31T02:08:37;26.30;;;15.00;;
18387;SDS011;9320;50.256;19.026;2022-10-31T02:11:07;30.97;;;16.07;;
18387;SDS011;9320;50.256;19.026;2022-10-31T02:13:36;23.10;;;14.93;;
18387;SDS011;9320;50.256;19.026;2022-10-31T02:16:05;26.97;;;15.17;;
18387;SDS011;9320;50.256;19.026;2022-10-31T02:18:36;27.97;;;15.93;;
18387;SDS011;9320;50.256;19.026;2022-10-31T02:21:09;25.93;;;15.07;;
18387;SDS011;9320;50.256;19.026;2022-10-31T02:24:07;27.53;;;15.20;;
18387;SDS011;9320;50.256;19.026;2022-10-31T02:32:41;29.47;;;14.40;;
18387;SDS011;9320;50.256;19.026;2022-10-31T02:35:22;30.37;;;16.17;;
18387;SDS011;9320;50.256;19.026;2022-10-31T02:37:57;32.90;;;15.83;;
18387;SDS011;9320;50.256;19.026;2022-10-31T02:40:30;33.83;;;16.83;;
18387;SDS011;9320;50.256;19.026;2022-10-31T02:43:02;32.50;;;16.60;;
18387;SDS011;9320;50.256;19.026;2022-10-31T02:45:38;33.67;;;17.97;;
18387;SDS011;9320;50.256;19.026;2022-10-31T02:48:14;35.13;;;18.40;;
18387;SDS011;9320;50.256;19.026;2022-10-31T02:50:47;31.60;;;17.83;;
18387;SDS011;9320;50.256;19.026;2022-10-31T02:53:20;35.67;;;18.80;;
18387;SDS011;9320;50.256;19.026;2022-10-31T02:55:50;30.07;;;19.10;;
18387;SDS011;9320;50.256;19.026;2022-10-31T02:58:24;32.23;;;18.37;;
18387;SDS011;9320;50.256;19.026;2022-10-31T03:00:58;34.50;;;18.60;;
18387;SDS011;9320;50.256;19.026;2022-10-31T03:03:53;31.53;;;16.93;;
18387;SDS011;9320;50.256;19.026;2022-10-31T03:06:35;31.67;;;18.17;;
18387;SDS011;9320;50.256;19.026;2022-10-31T03:09:08;28.60;;;16.40;;
18387;SDS011;9320;50.256;19.026;2022-10-31T03:11:43;29.23;;;17.37;;
18387;SDS011;9320;50.256;19.026;2022-10-31T03:14:16;27.33;;;16.27;;
18387;SDS011;9320;50.256;19.026;2022-10-31T03:16:48;28.73;;;15.77;;
18387;SDS011;9320;50.256;19.026;2022-10-31T03:19:22;30.23;;;16.77;;
18387;SDS011;9320;50.256;19.026;2022-10-31T03:21:54;28.70;;;16.57;;
18387;SDS011;9320;50.256;19.026;2022-10-31T03:24:25;32.97;;;15.47;;
18387;SDS011;9320;50.256;19.026;2022-10-31T03:26:57;26.83;;;15.60;;
18387;SDS011;9320;50.256;19.026;2022-10-31T03:29:27;26.33;;;16.00;;
18387;SDS011;9320;50.256;19.026;2022-10-31T03:31:59;26.43;;;15.70;;
18387;SDS011;9320;50.256;19.026;2022-10-31T03:34:31;34.43;;;17.97;;
18387;SDS011;9320;50.256;19.026;2022-10-31T03:37:01;43.77;;;21.60;;
18387;SDS011;9320;50.256;19.026;2022-10-31T03:39:32;45.93;;;24.33;;
18387;SDS011;9320;50.256;19.026;2022-10-31T03:42:04;46.33;;;22.73;;
18387;SDS011;9320;50.256;19.026;2022-10-31T03:44:34;39.27;;;20.10;;
18387;SDS011;9320;50.256;19.026;2022-10-31T03:47:04;36.53;;;18.47;;
18387;SDS011;9320;50.256;19.026;2022-10-31T03:49:34;35.50;;;17.27;;
18387;SDS011;9320;50.256;19.026;2022-10-31T03:52:04;24.33;;;14.97;;
18387;SDS011;9320;50.256;19.026;2022-10-31T03:54:40;34.70;;;16.87;;
18387;SDS011;9320;50.256;19.026;2022-10-31T03:57:12;30.23;;;15.40;;
18387;SDS011;9320;50.256;19.026;2022-10-31T03:59:47;27.50;;;15.13;;
18387;SDS011;9320;50.256;19.026;2022-10-31T04:02:20;30.53;;;15.63;;
18387;SDS011;9320;50.256;19.026;2022-10-31T04:04:57;33.73;;;17.50;;
18387;SDS011;9320;50.256;19.026;2022-10-31T04:07:27;36.93;;;19.63;;
18387;SDS011;9320;50.256;19.026;2022-10-31T04:09:57;43.10;;;20.73;;
18387;SDS011;9320;50.256;19.026;2022-10-31T04:12:28;47.17;;;21.87;;
18387;SDS011;9320;50.256;19.026;2022-10-31T04:14:58;44.27;;;21.83;;
18387;SDS011;9320;50.256;19.026;2022-10-31T04:17:27;44.23;;;22.93;;
18387;SDS011;9320;50.256;19.026;2022-10-31T04:20:00;46.90;;;22.67;;
18387;SDS011;9320;50.256;19.026;2022-10-31T04:22:29;49.77;;;25.17;;
18387;SDS011;9320;50.256;19.026;2022-10-31T04:24:57;53.50;;;26.33;;
18387;SDS011;9320;50.256;19.026;2022-10-31T04:27:24;49.80;;;24.50;;
18387;SDS011;9320;50.256;19.026;2022-10-31T04:29:52;49.43;;;24.87;;
18387;SDS011;9320;50.256;19.026;2022-10-31T04:32:20;42.60;;;21.83;;
18387;SDS011;9320;50.256;19.026;2022-10-31T04:34:48;50.23;;;22.03;;
18387;SDS011;9320;50.256;19.026;2022-10-31T04:37:18;39.93;;;20.33;;
18387;SDS011;9320;50.256;19.026;2022-10-31T04:39:45;40.63;;;19.70;;
18387;SDS011;9320;50.256;19.026;2022-10-31T04:42:13;37.27;;;18.27;;
18387;SDS011;9320;50.256;19.026;2022-10-31T04:44:41;32.10;;;17.03;;
18387;SDS011;9320;50.256;19.026;2022-10-31T04:47:09;34.57;;;16.93;;
18387;SDS011;9320;50.256;19.026;2022-10-31T04:49:37;32.17;;;16.10;;
18387;SDS011;9320;50.256;19.026;2022-10-31T04:52:05;26.60;;;15.47;;
18387;SDS011;9320;50.256;19.026;2022-10-31T04:54:35;38.07;;;16.57;;
18387;SDS011;9320;50.256;19.026;2022-10-31T04:57:03;30.90;;;15.90;;
18387;SDS011;9320;50.256;19.026;2022-10-31T04:59:31;30.73;;;15.20;;
18387;SDS011;9320;50.256;19.026;2022-10-31T05:01:59;26.00;;;16.27;;
18387;SDS011;9320;50.256;19.026;2022-10-31T05:04:27;31.87;;;16.00;;
18387;SDS011;9320;50.256;19.026;2022-10-31T05:06:55;31.90;;;16.60;;
18387;SDS011;9320;50.256;19.026;2022-10-31T05:09:23;27.30;;;16.03;;
18387;SDS011;9320;50.256;19.026;2022-10-31T05:11:52;28.50;;;15.27;;
18387;SDS011;9320;50.256;19.026;2022-10-31T05:14:20;33.47;;;16.10;;
18387;SDS011;9320;50.256;19.026;2022-10-31T05:16:48;28.67;;;15.23;;
18387;SDS011;9320;50.256;19.026;2022-10-31T05:19:16;24.57;;;14.97;;
18387;SDS011;9320;50.256;19.026;2022-10-31T05:21:44;28.47;;;15.23;;
18387;SDS011;9320;50.256;19.026;2022-10-31T05:24:12;37.77;;;16.17;;
18387;SDS011;9320;50.256;19.026;2022-10-31T05:26:40;28.43;;;15.80;;
18387;SDS011;9320;50.256;19.026;2022-10-31T05:29:09;29.97;;;15.70;;
18387;SDS011;9320;50.256;19.026;2022-10-31T05:31:37;29.50;;;15.73;;
18387;SDS011;9320;50.256;19.026;2022-10-31T05:34:05;31.93;;;16.13;;
18387;SDS011;9320;50.256;19.026;2022-10-31T05:36:33;33.70;;;15.47;;
18387;SDS011;9320;50.256;19.026;2022-10-31T05:39:02;31.57;;;16.20;;
18387;SDS011;9320;50.256;19.026;2022-10-31T05:41:30;28.70;;;15.60;;
18387;SDS011;9320;50.256;19.026;2022-10-31T05:43:58;26.83;;;14.57;;
18387;SDS011;9320;50.256;19.026;2022-10-31T05:46:27;28.33;;;16.00;;
18387;SDS011;9320;50.256;19.026;2022-10-31T05:48:55;30.27;;;14.90;;
18387;SDS011;9320;50.256;19.026;2022-10-31T05:51:27;34.03;;;16.10;;
18387;SDS011;9320;50.256;19.026;2022-10-31T05:53:55;30.27;;;15.97;;
18387;SDS011;9320;50.256;19.026;2022-10-31T05:56:24;33.77;;;15.00;;
18387;SDS011;9320;50.256;19.026;2022-10-31T05:58:51;33.87;;;15.90;;
18387;SDS011;9320;50.256;19.026;2022-10-31T06:01:19;32.63;;;15.90;;
18387;SDS011;9320;50.256;19.026;2022-10-31T06:03:49;27.40;;;15.77;;
18387;SDS011;9320;50.256;19.026;2022-10-31T06:06:17;30.07;;;16.50;;
18387;SDS011;9320;50.256;19.026;2022-10-31T06:08:45;34.23;;;17.37;;
18387;SDS011;9320;50.256;19.026;2022-10-31T06:11:13;32.90;;;17.93;;
18387;SDS011;9320;50.256;19.026;2022-10-31T06:13:41;35.77;;;18.03;;
18387;SDS011;9320;50.256;19.026;2022-10-31T06:16:08;32.93;;;17.93;;
18387;SDS011;9320;50.256;19.026;2022-10-31T06:18:36;37.23;;;19.53;;
18387;SDS011;9320;50.256;19.026;2022-10-31T06:21:06;34.00;;;18.03;;
18387;SDS011;9320;50.256;19.026;2022-10-31T06:23:35;44.60;;;18.70;;
18387;SDS011;9320;50.256;19.026;2022-10-31T06:26:03;33.97;;;18.67;;
18387;SDS011;9320;50.256;19.026;2022-10-31T06:28:31;37.10;;;18.00;;
18387;SDS011;9320;50.256;19.026;2022-10-31T06:30:59;36.13;;;17.57;;
18387;SDS011;9320;50.256;19.026;2022-10-31T06:33:27;32.30;;;18.10;;
18387;SDS011;9320;50.256;19.026;2022-10-31T06:35:55;35.80;;;17.43;;
18387;SDS011;9320;50.256;19.026;2022-10-31T06:38:26;30.00;;;17.03;;
18387;SDS011;9320;50.256;19.026;2022-10-31T06:40:54;35.67;;;16.70;;
18387;SDS011;9320;50.256;19.026;2022-10-31T06:43:22;32.43;;;16.67;;
18387;SDS011;9320;50.256;19.026;2022-10-31T06:45:50;33.50;;;17.90;;
18387;SDS011;9320;50.256;19.026;2022-10-31T06:48:18;30.67;;;18.00;;
18387;SDS011;9320;50.256;19.026;2022-10-31T06:50:47;38.73;;;18.17;;
18387;SDS011;9320;50.256;19.026;2022-10-31T06:53:15;38.17;;;18.57;;
18387;SDS011;9320;50.256;19.026;2022-10-31T06:55:44;38.17;;;19.17;;
18387;SDS011;9320;50.256;19.026;2022-10-31T06:58:12;41.47;;;21.97;;
18387;SDS011;9320;50.256;19.026;2022-10-31T07:00:40;50.13;;;21.67;;
18387;SDS011;9320;50.256;19.026;2022-10-31T07:03:10;38.13;;;21.27;;
18387;SDS011;9320;50.256;19.026;2022-10-31T07:05:39;39.00;;;21.03;;
18387;SDS011;9320;50.256;19.026;2022-10-31T07:08:08;38.20;;;21.33;;
18387;SDS011;9320;50.256;19.026;2022-10-31T07:10:38;39.83;;;22.03;;
18387;SDS011;9320;50.256;19.026;2022-10-31T07:13:10;42.77;;;22.10;;
18387;SDS011;9320;50.256;19.026;2022-10-31T07:15:41;40.77;;;22.17;;
18387;SDS011;9320;50.256;19.026;2022-10-31T07:18:10;45.77;;;22.67;;
18387;SDS011;9320;50.256;19.026;2022-10-31T07:20:39;37.87;;;20.63;;
18387;SDS011;9320;50.256;19.026;2022-10-31T07:23:07;41.90;;;21.97;;
18387;SDS011;9320;50.256;19.026;2022-10-31T07:25:37;35.77;;;20.90;;
18387;SDS011;9320;50.256;19.026;2022-10-31T07:28:05;40.40;;;21.07;;
18387;SDS011;9320;50.256;19.026;2022-10-31T07:30:34;36.00;;;18.90;;
18387;SDS011;9320;50.256;19.026;2022-10-31T07:33:03;33.60;;;20.10;;
18387;SDS011;9320;50.256;19.026;2022-10-31T07:35:31;41.07;;;22.60;;
18387;SDS011;9320;50.256;19.026;2022-10-31T07:38:07;39.27;;;21.13;;
18387;SDS011;9320;50.256;19.026;2022-10-31T07:40:36;37.33;;;21.80;;
18387;SDS011;9320;50.256;19.026;2022-10-31T07:43:04;40.37;;;22.17;;
18387;SDS011;9320;50.256;19.026;2022-10-31T07:45:40;39.70;;;23.20;;
18387;SDS011;9320;50.256;19.026;2022-10-31T07:48:08;46.00;;;24.27;;
18387;SDS011;9320;50.256;19.026;2022-10-31T07:50:36;40.17;;;22.63;;
18387;SDS011;9320;50.256;19.026;2022-10-31T07:53:05;44.57;;;23.57;;
18387;SDS011;9320;50.256;19.026;2022-10-31T07:55:35;46.33;;;25.10;;
18387;SDS011;9320;50.256;19.026;2022-10-31T07:58:04;45.00;;;25.02;;
18387;SDS011;9320;50.256;19.026;2022-10-31T08:00:33;45.25;;;25.23;;
18387;SDS011;9320;50.256;19.026;2022-10-31T08:03:04;43.08;;;23.70;;
18387;SDS011;9320;50.256;19.026;2022-10-31T08:05:33;37.17;;;22.40;;
18387;SDS011;9320;50.256;19.026;2022-10-31T08:08:02;37.35;;;20.73;;
18387;SDS011;9320;50.256;19.026;2022-10-31T08:10:31;37.83;;;20.80;;
18387;SDS011;9320;50.256;19.026;2022-10-31T08:13:00;37.67;;;21.92;;
18387;SDS011;9320;50.256;19.026;2022-10-31T08:15:29;40.65;;;21.85;;
18387;SDS011;9320;50.256;19.026;2022-10-31T08:17:57;33.13;;;19.45;;
18387;SDS011;9320;50.256;19.026;2022-10-31T08:20:27;36.22;;;19.48;;
18387;SDS011;9320;50.256;19.026;2022-10-31T08:22:55;34.42;;;18.75;;
18387;SDS011;9320;50.256;19.026;2022-10-31T08:25:24;33.20;;;17.30;;
18387;SDS011;9320;50.256;19.026;2022-10-31T08:27:59;25.95;;;13.90;;
18387;SDS011;9320;50.256;19.026;2022-10-31T08:30:28;27.80;;;13.90;;
18387;SDS011;9320;50.256;19.026;2022-10-31T08:32:58;23.48;;;13.80;;
18387;SDS011;9320;50.256;19.026;2022-10-31T08:35:28;26.52;;;13.50;;
18387;SDS011;9320;50.256;19.026;2022-10-31T08:37:56;19.60;;;12.75;;
18387;SDS011;9320;50.256;19.026;2022-10-31T08:40:26;25.73;;;13.35;;
18387;SDS011;9320;50.256;19.026;2022-10-31T08:42:55;24.67;;;14.55;;
18387;SDS011;9320;50.256;19.026;2022-10-31T08:45:24;30.67;;;14.52;;
18387;SDS011;9320;50.256;19.026;2022-10-31T08:47:56;28.92;;;13.43;;
18387;SDS011;9320;50.256;19.026;2022-10-31T08:50:25;25.63;;;13.68;;
18387;SDS011;9320;50.256;19.026;2022-10-31T08:52:58;25.50;;;12.75;;
18387;SDS011;9320;50.256;19.026;2022-10-31T08:55:32;19.83;;;12.70;;
18387;SDS011;9320;50.256;19.026;2022-10-31T08:58:02;19.27;;;11.60;;
18387;SDS011;9320;50.256;19.026;2022-10-31T09:00:30;18.77;;;12.23;;
18387;SDS011;9320;50.256;19.026;2022-10-31T09:02:59;21.75;;;11.55;;
18387;SDS011;9320;50.256;19.026;2022-10-31T09:05:29;19.45;;;11.50;;
18387;SDS011;9320;50.256;19.026;2022-10-31T09:07:59;23.67;;;11.75;;
18387;SDS011;9320;50.256;19.026;2022-10-31T09:10:29;19.00;;;11.27;;
18387;SDS011;9320;50.256;19.026;2022-10-31T09:12:58;24.48;;;11.70;;
18387;SDS011;9320;50.256;19.026;2022-10-31T09:15:27;22.02;;;12.05;;
18387;SDS011;9320;50.256;19.026;2022-10-31T09:17:55;21.25;;;11.23;;
18387;SDS011;9320;50.256;19.026;2022-10-31T09:20:24;20.63;;;12.25;;
18387;SDS011;9320;50.256;19.026;2022-10-31T09:22:55;23.52;;;12.68;;
18387;SDS011;9320;50.256;19.026;2022-10-31T09:25:26;25.77;;;11.73;;
18387;SDS011;9320;50.256;19.026;2022-10-31T09:27:55;17.88;;;11.55;;
18387;SDS011;9320;50.256;19.026;2022-10-31T09:30:25;23.30;;;11.80;;
18387;SDS011;9320;50.256;19.026;2022-10-31T09:32:54;21.23;;;10.95;;
18387;SDS011;9320;50.256;19.026;2022-10-31T09:35:23;19.60;;;11.75;;
18387;SDS011;9320;50.256;19.026;2022-10-31T09:37:55;19.10;;;11.10;;
18387;SDS011;9320;50.256;19.026;2022-10-31T09:40:27;20.17;;;11.43;;
18387;SDS011;9320;50.256;19.026;2022-10-31T09:43:01;20.08;;;11.35;;
18387;SDS011;9320;50.256;19.026;2022-10-31T09:45:37;15.80;;;10.50;;
18387;SDS011;9320;50.256;19.026;2022-10-31T09:48:12;18.75;;;11.30;;
18387;SDS011;9320;50.256;19.026;2022-10-31T09:50:50;20.90;;;11.60;;
18387;SDS011;9320;50.256;19.026;2022-10-31T09:53:22;18.45;;;11.85;;
18387;SDS011;9320;50.256;19.026;2022-10-31T09:55:56;19.63;;;10.60;;
18387;SDS011;9320;50.256;19.026;2022-10-31T09:58:26;19.02;;;10.75;;
18387;SDS011;9320;50.256;19.026;2022-10-31T10:01:00;25.60;;;11.77;;
18387;SDS011;9320;50.256;19.026;2022-10-31T10:03:32;19.13;;;11.00;;
18387;SDS011;9320;50.256;19.026;2022-10-31T10:06:13;19.38;;;10.10;;
18387;SDS011;9320;50.256;19.026;2022-10-31T10:08:43;23.40;;;11.48;;
18387;SDS011;9320;50.256;19.026;2022-10-31T10:11:17;21.67;;;11.60;;
18387;SDS011;9320;50.256;19.026;2022-10-31T10:13:59;21.15;;;10.65;;
18387;SDS011;9320;50.256;19.026;2022-10-31T10:16:44;18.02;;;10.98;;
18387;SDS011;9320;50.256;19.026;2022-10-31T10:19:30;21.35;;;10.90;;
18387;SDS011;9320;50.256;19.026;2022-10-31T10:22:12;23.48;;;10.10;;
18387;SDS011;9320;50.256;19.026;2022-10-31T10:24:49;20.13;;;10.43;;
18387;SDS011;9320;50.256;19.026;2022-10-31T10:27:39;21.10;;;10.93;;
18387;SDS011;9320;50.256;19.026;2022-10-31T10:30:16;16.60;;;10.02;;
18387;SDS011;9320;50.256;19.026;2022-10-31T10:32:47;24.65;;;10.32;;
18387;SDS011;9320;50.256;19.026;2022-10-31T10:35:19;22.17;;;10.00;;
18387;SDS011;9320;50.256;19.026;2022-10-31T10:37:52;20.35;;;10.73;;
18387;SDS011;9320;50.256;19.026;2022-10-31T10:40:27;17.75;;;9.90;;
18387;SDS011;9320;50.256;19.026;2022-10-31T10:42:59;21.85;;;9.70;;
18387;SDS011;9320;50.256;19.026;2022-10-31T10:45:49;23.67;;;9.77;;
18387;SDS011;9320;50.256;19.026;2022-10-31T10:48:41;19.10;;;9.00;;
18387;SDS011;9320;50.256;19.026;2022-10-31T10:51:15;17.83;;;8.93;;
18387;SDS011;9320;50.256;19.026;2022-10-31T10:54:18;13.65;;;8.27;;
18387;SDS011;9320;50.256;19.026;2022-10-31T10:56:59;20.15;;;8.88;;
18387;SDS011;9320;50.256;19.026;2022-10-31T10:59:36;18.83;;;8.80;;
18387;SDS011;9320;50.256;19.026;2022-10-31T11:02:09;17.23;;;8.73;;
18387;SDS011;9320;50.256;19.026;2022-10-31T11:04:45;15.65;;;8.55;;
18387;SDS011;9320;50.256;19.026;2022-10-31T11:07:17;12.85;;;7.97;;
18387;SDS011;9320;50.256;19.026;2022-10-31T11:09:45;17.88;;;8.13;;
18387;SDS011;9320;50.256;19.026;2022-10-31T11:12:17;14.80;;;8.00;;
18387;SDS011;9320;50.256;19.026;2022-10-31T11:14:50;18.33;;;8.38;;
18387;SDS011;9320;50.256;19.026;2022-10-31T11:17:27;18.42;;;8.13;;
18387;SDS011;9320;50.256;19.026;2022-10-31T11:20:01;14.07;;;7.70;;
18387;SDS011;9320;50.256;19.026;2022-10-31T11:22:34;16.67;;;8.43;;
18387;SDS011;9320;50.256;19.026;2022-10-31T11:25:11;15.95;;;7.97;;
18387;SDS011;9320;50.256;19.026;2022-10-31T11:27:58;17.48;;;8.45;;
18387;SDS011;9320;50.256;19.026;2022-10-31T11:30:28;16.17;;;8.52;;
18387;SDS011;9320;50.256;19.026;2022-10-31T11:32:57;14.77;;;7.70;;
18387;SDS011;9320;50.256;19.026;2022-10-31T11:35:26;19.50;;;7.88;;
18387;SDS011;9320;50.256;19.026;2022-10-31T11:37:56;15.80;;;8.45;;
18387;SDS011;9320;50.256;19.026;2022-10-31T11:40:28;16.83;;;7.78;;
18387;SDS011;9320;50.256;19.026;2022-10-31T11:42:57;16.77;;;8.75;;
18387;SDS011;9320;50.256;19.026;2022-10-31T11:45:31;18.80;;;8.13;;
18387;SDS011;9320;50.256;19.026;2022-10-31T11:48:02;19.55;;;8.75;;
18387;SDS011;9320;50.256;19.026;2022-10-31T11:50:41;18.70;;;8.38;;
18387;SDS011;9320;50.256;19.026;2022-10-31T11:53:15;20.75;;;8.85;;
18387;SDS011;9320;50.256;19.026;2022-10-31T11:55:45;21.60;;;9.18;;
18387;SDS011;9320;50.256;19.026;2022-10-31T11:58:20;19.05;;;8.48;;
18387;SDS011;9320;50.256;19.026;2022-10-31T12:00:51;16.42;;;8.25;;
18387;SDS011;9320;50.256;19.026;2022-10-31T12:03:26;23.15;;;8.43;;
18387;SDS011;9320;50.256;19.026;2022-10-31T12:06:12;17.10;;;8.73;;
18387;SDS011;9320;50.256;19.026;2022-10-31T12:08:45;21.85;;;9.57;;
18387;SDS011;9320;50.256;19.026;2022-10-31T12:11:18;16.92;;;8.70;;
18387;SDS011;9320;50.256;19.026;2022-10-31T12:14:08;22.25;;;9.10;;
18387;SDS011;9320;50.256;19.026;2022-10-31T12:16:46;18.80;;;9.77;;
18387;SDS011;9320;50.256;19.026;2022-10-31T12:19:23;18.50;;;8.70;;
18387;SDS011;9320;50.256;19.026;2022-10-31T12:22:01;17.80;;;8.55;;
18387;SDS011;9320;50.256;19.026;2022-10-31T12:24:40;15.73;;;8.70;;
18387;SDS011;9320;50.256;19.026;2022-10-31T12:27:23;17.85;;;8.77;;
18387;SDS011;9320;50.256;19.026;2022-10-31T12:30:03;19.40;;;8.80;;
18387;SDS011;9320;50.256;19.026;2022-10-31T12:32:46;19.33;;;8.77;;
18387;SDS011;9320;50.256;19.026;2022-10-31T12:35:44;20.00;;;8.27;;
18387;SDS011;9320;50.256;19.026;2022-10-31T12:38:30;15.40;;;7.85;;
18387;SDS011;9320;50.256;19.026;2022-10-31T12:41:14;21.45;;;8.50;;
18387;SDS011;9320;50.256;19.026;2022-10-31T12:43:55;14.95;;;7.82;;
18387;SDS011;9320;50.256;19.026;2022-10-31T12:46:31;16.25;;;7.93;;
18387;SDS011;9320;50.256;19.026;2022-10-31T12:49:23;15.63;;;7.70;;
18387;SDS011;9320;50.256;19.026;2022-10-31T12:52:14;18.23;;;8.32;;
18387;SDS011;9320;50.256;19.026;2022-10-31T12:54:56;17.58;;;8.80;;
18387;SDS011;9320;50.256;19.026;2022-10-31T12:57:37;20.83;;;8.18;;
18387;SDS011;9320;50.256;19.026;2022-10-31T13:00:11;19.92;;;9.23;;
18387;SDS011;9320;50.256;19.026;2022-10-31T13:02:43;16.50;;;9.20;;
18387;SDS011;9320;50.256;19.026;2022-10-31T13:05:19;19.23;;;8.38;;
18387;SDS011;9320;50.256;19.026;2022-10-31T13:07:55;20.75;;;9.35;;
18387;SDS011;9320;50.256;19.026;2022-10-31T13:10:28;20.85;;;9.57;;
18387;SDS011;9320;50.256;19.026;2022-10-31T13:13:00;22.70;;;9.50;;
18387;SDS011;9320;50.256;19.026;2022-10-31T13:15:41;21.40;;;9.23;;
18387;SDS011;9320;50.256;19.026;2022-10-31T13:18:18;15.90;;;8.98;;
18387;SDS011;9320;50.256;19.026;2022-10-31T13:20:54;21.85;;;9.02;;
18387;SDS011;9320;50.256;19.026;2022-10-31T13:23:27;18.17;;;9.25;;
18387;SDS011;9320;50.256;19.026;2022-10-31T13:26:20;21.58;;;9.77;;
18387;SDS011;9320;50.256;19.026;2022-10-31T13:28:55;17.73;;;9.32;;
18387;SDS011;9320;50.256;19.026;2022-10-31T13:31:29;19.48;;;10.10;;
18387;SDS011;9320;50.256;19.026;2022-10-31T13:33:58;21.30;;;9.65;;
18387;SDS011;9320;50.256;19.026;2022-10-31T13:36:33;18.55;;;9.75;;
18387;SDS011;9320;50.256;19.026;2022-10-31T13:39:11;19.92;;;9.70;;
18387;SDS011;9320;50.256;19.026;2022-10-31T13:41:49;16.75;;;8.93;;
18387;SDS011;9320;50.256;19.026;2022-10-31T13:44:20;21.58;;;9.50;;
18387;SDS011;9320;50.256;19.026;2022-10-31T13:46:50;24.13;;;10.57;;
18387;SDS011;9320;50.256;19.026;2022-10-31T13:49:23;21.00;;;9.75;;
18387;SDS011;9320;50.256;19.026;2022-10-31T13:52:04;23.20;;;9.90;;
18387;SDS011;9320;50.256;19.026;2022-10-31T13:54:40;19.25;;;10.00;;
18387;SDS011;9320;50.256;19.026;2022-10-31T13:57:12;18.00;;;9.48;;
18387;SDS011;9320;50.256;19.026;2022-10-31T13:59:47;18.50;;;9.88;;
18387;SDS011;9320;50.256;19.026;2022-10-31T14:02:20;22.98;;;9.52;;
18387;SDS011;9320;50.256;19.026;2022-10-31T14:04:54;19.88;;;9.95;;
18387;SDS011;9320;50.256;19.026;2022-10-31T14:07:26;22.30;;;10.48;;
18387;SDS011;9320;50.256;19.026;2022-10-31T14:09:56;19.88;;;10.35;;
18387;SDS011;9320;50.256;19.026;2022-10-31T14:12:28;20.17;;;10.27;;
18387;SDS011;9320;50.256;19.026;2022-10-31T14:15:03;23.95;;;10.35;;
18387;SDS011;9320;50.256;19.026;2022-10-31T14:17:45;21.88;;;10.70;;
18387;SDS011;9320;50.256;19.026;2022-10-31T14:20:24;28.33;;;12.23;;
18387;SDS011;9320;50.256;19.026;2022-10-31T14:23:12;22.75;;;12.25;;
18387;SDS011;9320;50.256;19.026;2022-10-31T14:26:17;27.95;;;11.55;;
18387;SDS011;9320;50.256;19.026;2022-10-31T14:28:58;23.23;;;11.50;;
18387;SDS011;9320;50.256;19.026;2022-10-31T14:31:29;23.50;;;10.48;;
18387;SDS011;9320;50.256;19.026;2022-10-31T14:34:06;19.80;;;10.63;;
18387;SDS011;9320;50.256;19.026;2022-10-31T14:36:58;24.92;;;10.20;;
18387;SDS011;9320;50.256;19.026;2022-10-31T14:39:47;20.15;;;10.57;;
18387;SDS011;9320;50.256;19.026;2022-10-31T14:42:28;22.35;;;9.77;;
18387;SDS011;9320;50.256;19.026;2022-10-31T14:48:10;22.35;;;10.95;;
18387;SDS011;9320;50.256;19.026;2022-10-31T14:50:48;21.63;;;10.30;;
18387;SDS011;9320;50.256;19.026;2022-10-31T14:53:19;21.60;;;11.00;;
18387;SDS011;9320;50.256;19.026;2022-10-31T14:55:51;22.70;;;10.50;;
18387;SDS011;9320;50.256;19.026;2022-10-31T14:58:21;26.95;;;10.95;;
18387;SDS011;9320;50.256;19.026;2022-10-31T15:00:53;25.10;;;11.35;;
18387;SDS011;9320;50.256;19.026;2022-10-31T15:03:25;25.88;;;11.18;;